createdAt,value
2023-02-11T00:02:31.959Z,102432.34
2023-02-11T00:05:34.740Z,102445.91
2023-02-11T00:08:37.838Z,102376.81
2023-02-11T00:11:40.229Z,102407.25
2023-02-11T00:14:42.551Z,102436.78
2023-02-11T00:17:48.389Z,102437.59
2023-02-11T00:20:50.741Z,102440.13
2023-02-11T00:23:54.918Z,102434.75
2023-02-11T00:26:57.385Z,102451.34
2023-02-11T00:30:02.250Z,102449.41
2023-02-11T00:33:06.355Z,102422.22
2023-02-11T00:36:13.279Z,102454.63
2023-02-11T00:39:15.722Z,102448.81
2023-02-11T00:42:18.220Z,102440.25
2023-02-11T00:45:21.400Z,102370.78
2023-02-11T00:48:23.879Z,102434.81
2023-02-11T00:51:28.302Z,102426.81
2023-02-11T00:54:30.642Z,102420.94
2023-02-11T00:57:33.272Z,102375.28
2023-02-11T01:00:35.690Z,102410.34
2023-02-11T01:03:38.777Z,102336.66
2023-02-11T01:06:41.233Z,102364.00
2023-02-11T01:09:43.602Z,102394.84
2023-02-11T01:12:46.103Z,102400.69
2023-02-11T01:15:48.628Z,102389.25
2023-02-11T01:18:51.237Z,102395.31
2023-02-11T01:21:53.612Z,102379.38
2023-02-11T01:24:57.743Z,102343.03
2023-02-11T01:28:00.206Z,102352.34
2023-02-11T01:31:03.361Z,102345.16
2023-02-11T01:34:08.360Z,102384.59
2023-02-11T01:37:12.698Z,102381.28
2023-02-11T01:40:17.102Z,102362.13
2023-02-11T01:43:21.250Z,102379.84
2023-02-11T01:46:29.487Z,102377.09
2023-02-11T01:49:36.552Z,102300.47
2023-02-11T01:52:41.283Z,102373.59
2023-02-11T01:56:02.539Z,102360.47
2023-02-11T01:59:11.738Z,102347.94
2023-02-11T02:02:21.438Z,102328.56
2023-02-11T02:05:38.990Z,102320.91
2023-02-11T02:08:51.141Z,102352.44
2023-02-11T02:11:54.177Z,102332.44
2023-02-11T02:15:20.081Z,102347.72
2023-02-11T02:19:07.702Z,102340.66
2023-02-11T02:22:10.655Z,102341.84
2023-02-11T02:25:13.015Z,102340.66
2023-02-11T02:28:40.114Z,102332.19
2023-02-11T02:31:54.800Z,102341.38
2023-02-11T02:35:08.251Z,102312.66
2023-02-11T02:38:23.842Z,102341.25
2023-02-11T02:41:32.462Z,102344.00
2023-02-11T02:44:34.950Z,102342.97
2023-02-11T02:47:37.358Z,102310.56
2023-02-11T02:50:39.826Z,102309.09
2023-02-11T02:53:53.438Z,102347.72
2023-02-11T02:57:12.035Z,102344.00
2023-02-11T03:00:17.159Z,102347.00
2023-02-11T03:03:28.669Z,102326.50
2023-02-11T03:06:49.323Z,102295.81
2023-02-11T03:09:58.431Z,102304.19
2023-02-11T03:13:03.234Z,102321.59
2023-02-11T03:16:27.023Z,102330.94
2023-02-11T03:19:34.967Z,102314.06
2023-02-11T03:23:05.677Z,102279.59
2023-02-11T03:26:14.182Z,102312.28
2023-02-11T03:29:28.442Z,102317.34
2023-02-11T03:32:46.894Z,102314.19
2023-02-11T03:36:09.371Z,102268.06
2023-02-11T03:39:16.269Z,102293.38
2023-02-11T03:42:20.238Z,102295.00
2023-02-11T03:45:24.446Z,102287.53
2023-02-11T03:48:33.343Z,102245.69
2023-02-11T03:51:37.466Z,102280.72
2023-02-11T03:54:43.361Z,102240.44
2023-02-11T03:57:47.240Z,102252.00
2023-02-11T04:00:49.842Z,102213.47
2023-02-11T04:03:52.248Z,102213.94
2023-02-11T04:06:54.549Z,102208.00
2023-02-11T04:09:56.992Z,102224.22
2023-02-11T04:12:59.530Z,102215.75
2023-02-11T04:16:02.016Z,102215.81
2023-02-11T04:19:04.945Z,102212.34
2023-02-11T04:22:08.111Z,102182.69
2023-02-11T04:25:10.741Z,102151.78
2023-02-11T04:28:13.236Z,102196.06
2023-02-11T04:31:15.982Z,102204.13
2023-02-11T04:34:18.626Z,102194.66
2023-02-11T04:37:21.245Z,102241.78
2023-02-11T04:40:23.626Z,102242.16
2023-02-11T04:43:26.081Z,102184.41
2023-02-11T04:46:28.507Z,102212.69
2023-02-11T04:49:30.909Z,102219.50
2023-02-11T04:52:33.243Z,102223.44
2023-02-11T04:55:35.611Z,102227.22
2023-02-11T04:58:38.304Z,102262.28
2023-02-11T05:01:40.860Z,102215.22
2023-02-11T05:04:43.257Z,102256.34
2023-02-11T05:07:45.814Z,102245.50
2023-02-11T05:10:48.224Z,102248.44
2023-02-11T05:13:51.288Z,102243.38
2023-02-11T05:16:53.762Z,102248.81
2023-02-11T05:19:56.170Z,102241.16
2023-02-11T05:22:58.514Z,102235.38
2023-02-11T05:26:01.229Z,102217.56
2023-02-11T05:29:03.791Z,102242.91
2023-02-11T05:32:07.350Z,102213.00
2023-02-11T05:35:09.800Z,102240.84
2023-02-11T05:38:12.289Z,102223.59
2023-02-11T05:41:14.737Z,102227.38
2023-02-11T05:44:17.155Z,102190.13
2023-02-11T05:47:19.553Z,102176.63
2023-02-11T05:50:22.036Z,102143.75
2023-02-11T05:53:27.885Z,102222.72
2023-02-11T05:56:30.224Z,102218.28
2023-02-11T05:59:32.639Z,102190.84
2023-02-11T06:02:35.211Z,102186.75
2023-02-11T06:05:37.601Z,102211.22
2023-02-11T06:08:40.334Z,102245.94
2023-02-11T06:11:42.702Z,102203.97
2023-02-11T06:14:45.057Z,102196.50
2023-02-11T06:17:47.502Z,102209.50
2023-02-11T06:20:49.948Z,102197.78
2023-02-11T06:23:52.366Z,102176.06
2023-02-11T06:26:54.731Z,102188.25
2023-02-11T06:29:57.208Z,102205.41
2023-02-11T06:32:59.570Z,102175.06
2023-02-11T06:36:02.738Z,102201.06
2023-02-11T06:39:05.217Z,102191.19
2023-02-11T06:42:08.051Z,102170.50
2023-02-11T06:45:11.192Z,102165.06
2023-02-11T06:48:13.848Z,102170.44
2023-02-11T06:51:17.160Z,102153.41
2023-02-11T06:54:19.654Z,102183.41
2023-02-11T06:57:22.081Z,102164.34
2023-02-11T07:00:24.444Z,102167.97
2023-02-11T07:03:26.895Z,102175.56
2023-02-11T07:06:29.539Z,102170.53
2023-02-11T07:09:32.297Z,102167.69
2023-02-11T07:12:34.867Z,102177.66
2023-02-11T07:15:38.174Z,102148.59
2023-02-11T07:18:41.159Z,102160.41
2023-02-11T07:21:43.577Z,102177.38
2023-02-11T07:24:45.988Z,102179.38
2023-02-11T07:27:50.101Z,102171.38
2023-02-11T07:30:52.581Z,102101.97
2023-02-11T07:33:57.758Z,102136.94
2023-02-11T07:37:00.187Z,102162.59
2023-02-11T07:40:03.575Z,102136.00
2023-02-11T07:43:06.057Z,102175.59
2023-02-11T07:46:12.169Z,102145.81
2023-02-11T07:49:15.125Z,102136.41
2023-02-11T07:52:17.564Z,102147.44
2023-02-11T07:55:19.920Z,102178.63
2023-02-11T07:58:22.294Z,102161.16
2023-02-11T08:01:28.268Z,102200.38
2023-02-11T08:04:30.734Z,102194.78
2023-02-11T08:07:33.130Z,102205.72
2023-02-11T08:10:35.429Z,102186.09
2023-02-11T08:13:38.677Z,102175.28
2023-02-11T08:16:41.918Z,102207.53
2023-02-11T08:19:44.372Z,102177.63
2023-02-11T08:22:46.760Z,102146.97
2023-02-11T08:25:49.111Z,102161.34
2023-02-11T08:28:53.112Z,102159.31
2023-02-11T08:31:55.542Z,102151.88
2023-02-11T08:34:58.005Z,102089.34
2023-02-11T08:38:00.332Z,102153.41
2023-02-11T08:41:02.794Z,102125.03
2023-02-11T08:44:05.442Z,102156.53
2023-02-11T08:47:08.204Z,102087.97
2023-02-11T08:50:10.560Z,102156.22
2023-02-11T08:53:13.006Z,102123.56
2023-02-11T08:56:16.842Z,102145.94
2023-02-11T08:59:19.805Z,102153.50
2023-02-11T09:02:22.299Z,102114.50
2023-02-11T09:05:24.824Z,102109.41
2023-02-11T09:08:27.228Z,102138.91
2023-02-11T09:11:34.946Z,102131.78
2023-02-11T09:14:38.424Z,102125.81
2023-02-11T09:17:40.884Z,102125.56
2023-02-11T09:20:43.337Z,102127.63
2023-02-11T09:23:47.904Z,102127.97
2023-02-11T09:26:50.381Z,102123.59
2023-02-11T09:29:52.748Z,102118.06
2023-02-11T09:32:55.130Z,102093.25
2023-02-11T09:36:01.427Z,102103.44
2023-02-11T09:39:06.106Z,102117.16
2023-02-11T09:42:24.276Z,102113.47
2023-02-11T09:45:28.982Z,102099.94
2023-02-11T09:48:40.131Z,102114.22
2023-02-11T09:51:48.335Z,102126.13
2023-02-11T09:54:58.126Z,102121.31
2023-02-11T09:58:05.185Z,102114.50
2023-02-11T10:01:36.377Z,102114.09
2023-02-11T10:04:44.718Z,102110.91
2023-02-11T10:08:01.278Z,102088.66
2023-02-11T10:11:22.652Z,102024.00
2023-02-11T10:14:43.926Z,102076.75
2023-02-11T10:18:23.685Z,102063.78
2023-02-11T10:21:52.821Z,102062.69
2023-02-11T10:24:59.837Z,102047.84
2023-02-11T10:28:20.270Z,102011.56
2023-02-11T10:31:27.741Z,102035.19
2023-02-11T10:34:30.258Z,102052.34
2023-02-11T10:37:32.763Z,102012.75
2023-02-11T10:40:35.210Z,102029.41
2023-02-11T10:43:37.609Z,102002.53
2023-02-11T10:46:40.314Z,102039.34
2023-02-11T10:49:44.428Z,102028.59
2023-02-11T10:52:47.014Z,102037.00
2023-02-11T10:55:57.457Z,102024.84
2023-02-11T10:59:05.350Z,102001.03
2023-02-11T11:02:34.314Z,102021.44
2023-02-11T11:05:46.633Z,101991.00
2023-02-11T11:08:51.649Z,102002.28
2023-02-11T11:11:54.284Z,101974.78
2023-02-11T11:15:16.619Z,101998.75
2023-02-11T11:18:23.371Z,101963.59
2023-02-11T11:21:36.502Z,101996.22
2023-02-11T11:24:45.051Z,101961.69
2023-02-11T11:27:56.047Z,101955.50
2023-02-11T11:30:59.785Z,101972.81
2023-02-11T11:34:32.429Z,101984.81
2023-02-11T11:37:39.222Z,101969.50
2023-02-11T11:40:41.569Z,101946.28
2023-02-11T11:43:57.233Z,101956.16
2023-02-11T11:47:11.667Z,101960.16
2023-02-11T11:50:39.819Z,101963.88
2023-02-11T11:54:04.722Z,101964.75
2023-02-11T11:57:19.330Z,101916.44
2023-02-11T12:00:33.866Z,101932.66
2023-02-11T12:03:58.798Z,101920.31
2023-02-11T12:07:25.760Z,101922.19
2023-02-11T12:10:37.030Z,101910.72
2023-02-11T12:14:09.545Z,101905.84
2023-02-11T12:17:47.313Z,101884.59
2023-02-11T12:21:13.243Z,101847.66
2023-02-11T12:24:29.566Z,101864.97
2023-02-11T12:27:37.905Z,101849.16
2023-02-11T12:31:04.270Z,101841.19
2023-02-11T12:34:34.174Z,101833.22
2023-02-11T12:38:08.383Z,101832.38
2023-02-11T12:41:46.437Z,101835.41
2023-02-11T12:45:13.986Z,101831.44
2023-02-11T12:48:22.913Z,101841.41
2023-02-11T12:51:34.812Z,101860.06
2023-02-11T12:54:42.117Z,101841.75
2023-02-11T12:57:48.561Z,101839.38
2023-02-11T13:00:57.239Z,101823.44
2023-02-11T13:04:21.789Z,101856.03
2023-02-11T13:07:36.112Z,101808.63
2023-02-11T13:10:41.761Z,101791.63
2023-02-11T13:13:50.104Z,101786.50
2023-02-11T13:16:55.183Z,101768.44
2023-02-11T13:20:05.710Z,101756.44
2023-02-11T13:23:15.717Z,101748.44
2023-02-11T13:26:40.689Z,101723.13
2023-02-11T13:30:22.349Z,101762.47
2023-02-11T13:33:35.316Z,101746.75
2023-02-11T13:36:37.702Z,101755.56
2023-02-11T13:39:41.106Z,101748.16
2023-02-11T13:42:53.956Z,101758.00
2023-02-11T13:46:15.589Z,101731.81
2023-02-11T13:49:21.313Z,101726.22
2023-02-11T13:52:38.903Z,101730.66
2023-02-11T13:55:47.997Z,101733.34
2023-02-11T13:58:51.480Z,101733.28
2023-02-11T14:02:14.023Z,101733.03
2023-02-11T14:05:51.470Z,101702.31
2023-02-11T14:09:09.201Z,101721.25
2023-02-11T14:12:41.084Z,101726.34
2023-02-11T14:15:46.411Z,101731.47
2023-02-11T14:18:52.112Z,101742.69
2023-02-11T14:22:06.079Z,101723.84
2023-02-11T14:25:24.334Z,101729.84
2023-02-11T14:28:34.200Z,101750.38
2023-02-11T14:31:45.631Z,101752.00
2023-02-11T14:35:08.563Z,101724.31
2023-02-11T14:38:35.820Z,101768.81
2023-02-11T14:41:51.101Z,101736.84
2023-02-11T14:44:57.584Z,101731.56
2023-02-11T14:48:35.225Z,101691.94
2023-02-11T14:51:41.244Z,101699.34
2023-02-11T14:54:45.203Z,101713.03
2023-02-11T14:57:49.640Z,101663.28
2023-02-11T15:01:06.545Z,101670.97
2023-02-11T15:04:27.741Z,101673.28
2023-02-11T15:07:30.099Z,101646.50
2023-02-11T15:10:41.858Z,101675.59
2023-02-11T15:13:48.133Z,101665.22
2023-02-11T15:16:56.114Z,101672.06
2023-02-11T15:20:01.821Z,101665.16
2023-02-11T15:23:09.460Z,101616.97
2023-02-11T15:26:14.139Z,101646.28
2023-02-11T15:29:17.059Z,101641.16
2023-02-11T15:32:22.499Z,101612.97
2023-02-11T15:35:30.558Z,101609.13
2023-02-11T15:38:33.212Z,101597.78
2023-02-11T15:41:37.962Z,101638.09
2023-02-11T15:44:41.392Z,101645.66
2023-02-11T15:47:53.444Z,101617.25
2023-02-11T15:51:01.100Z,101621.28
2023-02-11T15:54:09.641Z,101634.97
2023-02-11T15:57:12.122Z,101617.63
2023-02-11T16:00:21.548Z,101638.75
2023-02-11T16:03:28.851Z,101653.22
2023-02-11T16:06:42.641Z,101654.00
2023-02-11T16:09:45.318Z,101613.75
2023-02-11T16:13:01.647Z,101644.78
2023-02-11T16:16:15.547Z,101598.13
2023-02-11T16:19:20.154Z,101617.13
2023-02-11T16:22:28.896Z,101623.59
2023-02-11T16:25:34.482Z,101587.34
2023-02-11T16:28:37.727Z,101598.59
2023-02-11T16:31:43.432Z,101617.72
2023-02-11T16:34:47.662Z,101593.59
2023-02-11T16:37:50.023Z,101577.91
2023-02-11T16:40:53.072Z,101660.47
2023-02-11T16:43:58.429Z,101617.38
2023-02-11T16:47:05.917Z,101629.81
2023-02-11T16:50:10.665Z,101643.41
2023-02-11T16:53:23.850Z,101652.84
2023-02-11T16:56:26.273Z,101657.19
2023-02-11T16:59:29.357Z,101635.72
2023-02-11T17:02:35.874Z,101640.13
2023-02-11T17:05:54.297Z,101659.22
2023-02-11T17:08:57.450Z,101654.97
2023-02-11T17:12:00.288Z,101628.16
2023-02-11T17:15:02.925Z,101656.63
2023-02-11T17:18:05.727Z,101603.59
2023-02-11T17:21:08.594Z,101626.09
2023-02-11T17:24:12.126Z,101638.03
2023-02-11T17:27:15.275Z,101561.50
2023-02-11T17:30:18.210Z,101598.44
2023-02-11T17:33:21.956Z,101626.81
2023-02-11T17:36:24.549Z,101636.44
2023-02-11T17:39:27.637Z,101622.75
2023-02-11T17:42:31.279Z,101625.16
2023-02-11T17:45:34.408Z,101620.88
2023-02-11T17:48:38.608Z,101589.81
2023-02-11T17:51:41.114Z,101601.78
2023-02-11T17:54:44.078Z,101638.47
2023-02-11T17:57:46.868Z,101637.81
2023-02-11T18:00:50.158Z,101586.50
2023-02-11T18:03:54.146Z,101619.31
2023-02-11T18:06:57.769Z,101619.41
2023-02-11T18:10:00.467Z,101558.63
2023-02-11T18:13:03.092Z,101627.38
2023-02-11T18:16:08.561Z,101602.50
2023-02-11T18:19:11.822Z,101609.47
2023-02-11T18:22:14.681Z,101618.84
2023-02-11T18:25:18.398Z,101607.81
2023-02-11T18:28:20.877Z,101582.78
2023-02-11T18:31:24.941Z,101625.97
2023-02-11T18:34:27.511Z,101598.97
2023-02-11T18:37:30.077Z,101605.91
2023-02-11T18:40:32.562Z,101573.88
2023-02-11T18:43:36.166Z,101619.34
2023-02-11T18:46:38.784Z,101586.72
2023-02-11T18:49:41.839Z,101582.53
2023-02-11T18:52:44.574Z,101591.09
2023-02-11T18:55:49.307Z,101598.75
2023-02-11T18:58:52.187Z,101585.69
2023-02-11T19:01:55.220Z,101586.44
2023-02-11T19:04:58.256Z,101582.94
2023-02-11T19:08:01.255Z,101590.56
2023-02-11T19:11:04.589Z,101598.34
2023-02-11T19:14:10.457Z,101593.28
2023-02-11T19:17:13.503Z,101595.31
2023-02-11T19:20:16.926Z,101581.47
2023-02-11T19:23:19.549Z,101607.34
2023-02-11T19:26:28.419Z,101605.81
2023-02-11T19:29:33.450Z,101632.16
2023-02-11T19:32:36.083Z,101606.94
2023-02-11T19:35:38.731Z,101597.56
2023-02-11T19:38:43.679Z,101632.88
2023-02-11T19:41:46.558Z,101624.25
2023-02-11T19:44:49.313Z,101615.84
2023-02-11T19:47:55.301Z,101589.22
2023-02-11T19:51:06.683Z,101585.72
2023-02-11T19:54:09.825Z,101589.38
2023-02-11T19:57:12.445Z,101582.63
2023-02-11T20:00:15.786Z,101619.59
2023-02-11T20:03:18.631Z,101591.25
2023-02-11T20:06:25.712Z,101576.44
2023-02-11T20:09:31.165Z,101621.06
2023-02-11T20:12:33.920Z,101614.56
2023-02-11T20:15:36.763Z,101620.63
2023-02-11T20:18:40.527Z,101586.28
2023-02-11T20:21:46.694Z,101604.50
2023-02-11T20:24:49.450Z,101573.41
2023-02-11T20:27:51.759Z,101623.75
2023-02-11T20:30:58.055Z,101613.41
2023-02-11T20:34:01.721Z,101615.84
2023-02-11T20:37:05.007Z,101621.63
2023-02-11T20:40:08.038Z,101630.97
2023-02-11T20:43:10.803Z,101622.53
2023-02-11T20:46:16.357Z,101607.84
2023-02-11T20:49:21.555Z,101610.31
2023-02-11T20:52:24.134Z,101574.53
2023-02-11T20:55:26.849Z,101626.06
2023-02-11T20:58:30.366Z,101577.81
2023-02-11T21:01:40.653Z,101638.84
2023-02-11T21:04:43.312Z,101623.38
2023-02-11T21:07:46.177Z,101623.41
2023-02-11T21:10:48.846Z,101609.75
2023-02-11T21:13:51.426Z,101615.84
2023-02-11T21:16:54.651Z,101610.69
2023-02-11T21:19:57.639Z,101609.72
2023-02-11T21:23:00.305Z,101597.03
2023-02-11T21:26:02.976Z,101578.88
2023-02-11T21:29:07.797Z,101596.69
2023-02-11T21:32:10.544Z,101606.22
2023-02-11T21:35:13.233Z,101614.09
2023-02-11T21:38:16.570Z,101595.81
2023-02-11T21:41:25.010Z,101632.53
2023-02-11T21:44:27.625Z,101627.88
2023-02-11T21:47:31.564Z,101623.56
2023-02-11T21:50:34.001Z,101602.09
2023-02-11T21:53:36.682Z,101626.75
2023-02-11T21:56:39.174Z,101616.16
2023-02-11T21:59:42.226Z,101630.41
2023-02-11T22:02:44.727Z,101616.47
2023-02-11T22:05:48.578Z,101585.28
2023-02-11T22:08:50.993Z,101587.88
2023-02-11T22:11:53.778Z,101625.03
2023-02-11T22:14:56.124Z,101594.72
2023-02-11T22:17:58.517Z,101615.22
2023-02-11T22:21:16.419Z,101588.91
2023-02-11T22:24:18.881Z,101610.53
2023-02-11T22:27:21.898Z,101614.78
2023-02-11T22:30:24.354Z,101628.16
2023-02-11T22:33:28.152Z,101596.72
2023-02-11T22:36:40.151Z,101634.41
2023-02-11T22:39:42.910Z,101637.59
2023-02-11T22:42:45.327Z,101630.03
2023-02-11T22:45:47.799Z,101634.56
2023-02-11T22:48:51.010Z,101618.31
2023-02-11T22:51:53.391Z,101635.63
2023-02-11T22:54:55.746Z,101634.94
2023-02-11T22:57:58.137Z,101646.66
2023-02-11T23:01:00.593Z,101623.44
2023-02-11T23:04:05.788Z,101645.06
2023-02-11T23:07:08.095Z,101606.28
2023-02-11T23:10:11.072Z,101611.41
2023-02-11T23:13:13.543Z,101640.03
2023-02-11T23:16:19.241Z,101642.50
2023-02-11T23:19:21.616Z,101642.66
2023-02-11T23:22:23.996Z,101644.47
2023-02-11T23:25:26.461Z,101606.47
2023-02-11T23:28:29.466Z,101635.47
2023-02-11T23:31:37.440Z,101617.31
2023-02-11T23:34:40.060Z,101635.88
2023-02-11T23:37:42.430Z,101658.94
2023-02-11T23:40:44.830Z,101627.97
2023-02-11T23:43:55.257Z,101677.25
2023-02-11T23:46:57.788Z,101622.81
2023-02-11T23:50:00.266Z,101662.97
2023-02-11T23:53:02.670Z,101635.31
2023-02-11T23:56:15.172Z,101621.13
2023-02-11T23:59:17.814Z,101656.94
